WetterOnline ( https://www.wetteronline.de )

Wetter aktuell Merzig

Aktuelles Wetter: Berus (367m)

6-stündlich | Neueste Meldungen
Ortszeit Temperatur Wetter
Di, 10.12. 1:00 2.4° C wolkenlos
Mo, 09.12. 19:00 4.6° C leichter Regen
Mo, 09.12. 13:00 5.0° C Sprühregen
Mo, 09.12. 7:00 5.1° C Regen
Mo, 09.12. 1:00 5.6° C Sprühregen
So, 08.12. 19:00 6.9° C Sprühregen
So, 08.12. 13:00 8.6° C leichter Regen
So, 08.12. 7:00 7.3° C bewölkt
Ortszeit Temperatur Wetter
Di, 10.12. 3:00 1.5° C leicht bewölkt
Di, 10.12. 2:50 1.5° C leicht bewölkt
Di, 10.12. 2:40 1.7° C leicht bewölkt
Di, 10.12. 2:30 1.6° C fast wolkenlos
Di, 10.12. 2:20 1.6° C fast wolkenlos
Di, 10.12. 2:10 1.9° C fast wolkenlos
Di, 10.12. 2:00 1.7° C wolkenlos
Di, 10.12. 1:30 1.9° C wolkenlos
Di, 10.12. 1:00 2.4° C wolkenlos
Di, 10.12. 0:30 3.0° C fast wolkenlos
Di, 10.12. 0:00 2.7° C fast wolkenlos
Ortszeit Relative Feuchte Sichtweite
Di, 10.12. 1:00 85% 22 km
Mo, 09.12. 19:00 87% 22 km
Mo, 09.12. 13:00 95% 15 km
Mo, 09.12. 7:00 92% 8 km
Mo, 09.12. 1:00 93% 8 km
So, 08.12. 19:00 96% 25 km
So, 08.12. 13:00 95% 45 km
So, 08.12. 7:00 85% >70 km
Ortszeit Relative Feuchte Sichtweite
Di, 10.12. 3:00 90% 22 km
Di, 10.12. 2:50 90% -
Di, 10.12. 2:40 89% -
Di, 10.12. 2:30 90% 21 km
Di, 10.12. 2:20 90% -
Di, 10.12. 2:10 88% -
Di, 10.12. 2:00 89% 22 km
Di, 10.12. 1:30 88% 20 km
Di, 10.12. 1:00 85% 22 km
Di, 10.12. 0:30 82% 24 km
Di, 10.12. 0:00 85% 24 km
Ortszeit Niederschlagsmenge Niederschlagsart
Di, 10.12. 1:00 0.9 l/m2 in 6 Std. Regen
Mo, 09.12. 19:00 3 l/m2 in 12 Std. Regen
Mo, 09.12. 13:00 2 l/m2 in 6 Std. Regen
Mo, 09.12. 7:00 2 l/m2 in 12 Std. Regen
Mo, 09.12. 1:00 0.7 l/m2 in 6 Std. Regen
So, 08.12. 19:00 8 l/m2 in 12 Std. Regen
So, 08.12. 13:00 0.6 l/m2 in 6 Std. Regen
So, 08.12. 7:00 0.1 l/m2 in 12 Std. Sprühregen
Ortszeit Niederschlagsmenge Niederschlagsart
Di, 10.12. 3:00 0.0 l/m2 in 1 Std. -
Di, 10.12. 2:50 keine Meldung -
Di, 10.12. 2:40 keine Meldung -
Di, 10.12. 2:30 0.0 l/m2 in 1 Std. -
Di, 10.12. 2:20 keine Meldung -
Di, 10.12. 2:10 keine Meldung -
Di, 10.12. 2:00 0.0 l/m2 in 1 Std. -
Di, 10.12. 1:30 0.0 l/m2 in 1 Std. -
Di, 10.12. 1:00 0.0 l/m2 in 1 Std. Regen
Di, 10.12. 0:30 0.0 l/m2 in 1 Std. -
Di, 10.12. 0:00 0.0 l/m2 in 1 Std. -
Ortszeit Stärke Spitze Richtung
km/h Bft. km/h Grad Sektor
Di, 10.12. 1:00 11 2 50 300° NW
Mo, 09.12. 19:00 26 4 50 280° W
Mo, 09.12. 13:00 22 4 63 240° SW
Mo, 09.12. 7:00 33 5 63 220° SW
Mo, 09.12. 1:00 31 5 65 240° SW
So, 08.12. 19:00 28 4 65 250° W
So, 08.12. 13:00 36 5 61 210° SW
So, 08.12. 7:00 30 5 48 210° SW
Ortszeit Stärke Spitze Richtung
km/h Bft. km/h Grad Sektor
Di, 10.12. 3:00 14 3 22 290° W
Di, 10.12. 2:50 14 3 - 290° W
Di, 10.12. 2:40 14 3 - 290° W
Di, 10.12. 2:30 11 2 22 290° W
Di, 10.12. 2:20 11 2 - 290° W
Di, 10.12. 2:10 13 3 - 290° W
Di, 10.12. 2:00 11 2 20 290° W
Di, 10.12. 1:30 9 2 19 270° W
Di, 10.12. 1:00 11 2 36 300° NW
Di, 10.12. 0:30 20 4 35 320° NW
Di, 10.12. 0:00 13 3 31 320° NW
Ortszeit Untergrenze Bedeckung Gattung
total tief tief mittel hoch
Di, 10.12. 1:00 - 0/8 0/8 - - -
Mo, 09.12. 19:00 480 m 8/8 8/8 - - -
Mo, 09.12. 13:00 240 m 8/8 8/8 - - -
Mo, 09.12. 7:00 480 m 8/8 8/8 - - -
Mo, 09.12. 1:00 480 m 8/8 8/8 - - -
So, 08.12. 19:00 180 m 8/8 8/8 - - -
So, 08.12. 13:00 180 m 8/8 8/8 - - -
So, 08.12. 7:00 570 m 8/8 7/8 - - -
Ortszeit Bedeckungsgrad in Achtel und Wolkenuntergrenze
Di, 10.12. 3:00 3(600m)
Di, 10.12. 2:50 3(600m)
Di, 10.12. 2:40 3(600m)
Di, 10.12. 2:30 1(690m)
Di, 10.12. 2:20 1(690m)
Di, 10.12. 2:10 1(510m)
Di, 10.12. 2:00 1(690m)
Di, 10.12. 1:30 keine Wolken
Di, 10.12. 1:00 keine Wolken
Di, 10.12. 0:30 1(690m)
Di, 10.12. 0:00 1(690m)
Ortszeit Luftdruck NN (hPa) Tendenz (hPa in 3 Std.)
Di, 10.12. 1:00 1023 + 4,4
Mo, 09.12. 19:00 1011 + 3,8
Mo, 09.12. 13:00 1003 + 1,3
Mo, 09.12. 7:00 1003 - 1,6
Mo, 09.12. 1:00 1006 - 0,6
So, 08.12. 19:00 1006 - 0,4
So, 08.12. 13:00 1009 - 2,6
So, 08.12. 7:00 1013 - 2,4
Ortszeit Luftdruck NN (hPa) Tendenz (hPa in 3 Std.)
Di, 10.12. 3:00 1026 + 3,1
Di, 10.12. 2:50 1026 keine Meldung
Di, 10.12. 2:40 1025 keine Meldung
Di, 10.12. 2:30 1025 + 3,4
Di, 10.12. 2:20 1025 keine Meldung
Di, 10.12. 2:10 1025 keine Meldung
Di, 10.12. 2:00 1024 + 3,6
Di, 10.12. 1:30 1024 + 4,3
Di, 10.12. 1:00 1023 + 4,4
Di, 10.12. 0:30 1023 + 5,0
Di, 10.12. 0:00 1022 + 5,6
Ortszeit Schneehöhe (cm)
Di, 10.12. 1:00 0
Mo, 09.12. 19:00 0
Mo, 09.12. 13:00 0
Mo, 09.12. 7:00 0
Mo, 09.12. 1:00 0
So, 08.12. 19:00 0
So, 08.12. 13:00 0
So, 08.12. 7:00 0
Ortszeit Schneehöhe (cm)
Di, 10.12. 3:00 0
Di, 10.12. 2:50 0
Di, 10.12. 2:40 0
Di, 10.12. 2:30 0
Di, 10.12. 2:20 0
Di, 10.12. 2:10 0
Di, 10.12. 2:00 0
Di, 10.12. 1:30 0
Di, 10.12. 1:00 0
Di, 10.12. 0:30 0
Di, 10.12. 0:00 0
Link zu dieser Seite / Seite empfehlen

Das Wetter in ...